createdAt,value
2022-10-15T00:03:04.816Z,83.67
2022-10-15T00:06:23.800Z,83.81
2022-10-15T00:09:38.803Z,83.92
2022-10-15T00:12:48.156Z,84.00
2022-10-15T00:15:56.831Z,84.15
2022-10-15T00:19:11.822Z,84.14
2022-10-15T00:22:21.009Z,84.33
2022-10-15T00:25:35.792Z,84.49
2022-10-15T00:28:44.840Z,84.73
2022-10-15T00:31:53.611Z,84.87
2022-10-15T00:35:02.834Z,85.06
2022-10-15T00:38:17.807Z,85.19
2022-10-15T00:41:35.868Z,85.27
2022-10-15T00:45:04.805Z,85.40
2022-10-15T00:48:08.300Z,85.42
2022-10-15T00:51:25.807Z,85.70
2022-10-15T00:54:31.441Z,85.89
2022-10-15T00:57:47.830Z,85.87
2022-10-15T01:01:02.916Z,85.98
2022-10-15T01:04:07.135Z,86.21
2022-10-15T01:07:21.873Z,86.41
2022-10-15T01:10:43.594Z,86.56
2022-10-15T01:14:26.842Z,86.43
2022-10-15T01:17:51.823Z,86.26
2022-10-15T01:21:17.819Z,86.36
2022-10-15T01:24:55.887Z,86.16
2022-10-15T01:28:24.437Z,86.48
2022-10-15T01:31:44.928Z,86.63
2022-10-15T01:35:09.831Z,86.79
2022-10-15T01:38:33.855Z,86.87
2022-10-15T01:41:47.269Z,87.18
2022-10-15T01:45:00.834Z,87.46
2022-10-15T01:48:18.871Z,87.43
2022-10-15T01:51:23.615Z,87.74
2022-10-15T01:54:37.836Z,87.60
2022-10-15T01:57:50.900Z,87.64
2022-10-15T02:00:59.970Z,87.87
2022-10-15T02:04:08.855Z,87.95
2022-10-15T02:07:47.885Z,87.97
2022-10-15T02:11:11.927Z,88.01
2022-10-15T02:14:39.872Z,87.97
2022-10-15T02:17:58.802Z,88.27
2022-10-15T02:21:21.852Z,88.60
2022-10-15T02:24:28.216Z,88.72
2022-10-15T02:27:43.876Z,88.95
2022-10-15T02:30:50.596Z,89.41
2022-10-15T02:34:10.862Z,89.63
2022-10-15T02:37:13.828Z,89.75
2022-10-15T02:40:31.879Z,90.14
2022-10-15T02:43:42.872Z,90.25
2022-10-15T02:46:51.511Z,90.18
2022-10-15T02:49:59.931Z,89.78
2022-10-15T02:53:08.659Z,90.02
2022-10-15T02:56:16.981Z,90.63
2022-10-15T02:59:31.876Z,91.04
2022-10-15T03:02:40.529Z,90.99
2022-10-15T03:05:49.855Z,91.02
2022-10-15T03:09:05.143Z,91.26
2022-10-15T03:12:13.933Z,91.27
2022-10-15T03:15:28.858Z,91.15
2022-10-15T03:18:30.928Z,90.72
2022-10-15T03:21:46.890Z,90.70
2022-10-15T03:24:55.546Z,90.92
2022-10-15T03:28:03.918Z,90.89
2022-10-15T03:31:12.379Z,91.20
2022-10-15T03:34:20.866Z,91.54
2022-10-15T03:37:29.559Z,91.39
2022-10-15T03:40:38.887Z,91.97
2022-10-15T03:43:53.900Z,91.92
2022-10-15T03:46:55.681Z,91.80
2022-10-15T03:50:16.935Z,91.65
2022-10-15T03:53:18.756Z,91.65
2022-10-15T03:56:33.942Z,91.89
2022-10-15T04:02:55.935Z,91.85
2022-10-15T04:06:10.875Z,91.79
2022-10-15T04:09:26.320Z,91.82
2022-10-15T04:12:34.903Z,91.78
2022-10-15T04:15:49.905Z,91.68
2022-10-15T04:18:51.663Z,91.43
2022-10-15T04:22:06.052Z,91.52
2022-10-15T04:25:14.933Z,91.49
2022-10-15T04:28:23.634Z,91.63
2022-10-15T04:31:32.007Z,91.73
2022-10-15T04:34:40.805Z,91.82
2022-10-15T04:37:48.917Z,91.80
2022-10-15T04:41:14.969Z,91.91
2022-10-15T04:44:16.803Z,91.72
2022-10-15T04:47:31.944Z,92.05
2022-10-15T04:50:33.639Z,92.21
2022-10-15T04:53:47.944Z,92.00
2022-10-15T04:56:56.478Z,91.83
2022-10-15T05:00:11.959Z,91.80
2022-10-15T05:03:13.921Z,91.79
2022-10-15T05:06:29.930Z,91.72
2022-10-15T05:09:39.931Z,91.90
2022-10-15T05:12:58.022Z,91.63
2022-10-15T05:16:12.132Z,91.33
2022-10-15T05:19:26.961Z,90.79
2022-10-15T05:22:34.955Z,90.42
2022-10-15T05:25:43.487Z,90.03
2022-10-15T05:28:51.985Z,89.81
2022-10-15T05:32:00.579Z,89.87
2022-10-15T05:35:09.012Z,89.80
2022-10-15T05:38:17.690Z,89.62
2022-10-15T05:41:25.976Z,89.27
2022-10-15T05:44:40.946Z,89.19
2022-10-15T05:47:48.988Z,88.86
2022-10-15T05:51:03.696Z,88.47
2022-10-15T05:54:11.968Z,88.56
2022-10-15T05:57:22.162Z,88.92
2022-10-15T06:00:37.955Z,88.62
2022-10-15T06:03:41.970Z,88.48
2022-10-15T06:06:57.015Z,88.28
2022-10-15T06:10:12.984Z,88.02
2022-10-15T06:13:22.250Z,87.50
2022-10-15T06:16:30.977Z,87.54
2022-10-15T06:19:39.472Z,86.94
2022-10-15T06:22:47.987Z,86.58
2022-10-15T06:25:56.788Z,86.11
2022-10-15T06:29:05.032Z,85.74
2022-10-15T06:32:13.693Z,85.59
2022-10-15T06:35:22.989Z,85.23
2022-10-15T06:38:32.183Z,85.23
2022-10-15T06:41:40.064Z,85.42
2022-10-15T06:44:48.790Z,85.08
2022-10-15T06:47:56.985Z,84.62
2022-10-15T06:51:05.792Z,84.41
2022-10-15T06:54:14.044Z,84.22
2022-10-15T06:57:22.774Z,84.11
2022-10-15T07:03:57.130Z,83.58
2022-10-15T07:06:59.293Z,83.02
2022-10-15T07:13:27.835Z,81.68
2022-10-15T07:16:43.111Z,81.45
2022-10-15T07:19:58.020Z,81.63
2022-10-15T07:23:06.923Z,81.56
2022-10-15T07:26:15.018Z,81.71
2022-10-15T07:29:23.573Z,81.65
2022-10-15T07:32:31.994Z,81.34
2022-10-15T07:35:41.567Z,81.20
2022-10-15T07:38:50.015Z,80.92
2022-10-15T07:42:00.037Z,80.59
2022-10-15T07:45:16.005Z,80.35
2022-10-15T07:48:24.922Z,79.98
2022-10-15T07:51:33.252Z,79.50
2022-10-15T07:54:43.889Z,79.16
2022-10-15T07:57:52.014Z,78.58
2022-10-15T08:01:17.031Z,78.14
2022-10-15T08:04:32.023Z,77.72
2022-10-15T08:11:13.625Z,77.20
2022-10-15T08:14:28.104Z,77.18
2022-10-15T08:17:29.887Z,77.01
2022-10-15T08:20:46.131Z,76.71
2022-10-15T08:23:54.023Z,76.67
2022-10-15T08:27:02.647Z,76.53
2022-10-15T08:30:18.076Z,76.05
2022-10-15T08:33:27.878Z,75.61
2022-10-15T08:36:43.116Z,74.81
2022-10-15T08:39:51.116Z,74.10
2022-10-15T08:42:59.609Z,74.08
2022-10-15T08:46:23.080Z,74.02
2022-10-15T08:49:34.749Z,72.91
2022-10-15T08:52:53.143Z,72.45
2022-10-15T08:56:10.072Z,71.45
2022-10-15T08:59:45.077Z,70.92
2022-10-15T09:03:01.151Z,69.67
2022-10-15T09:06:20.168Z,69.00
2022-10-15T09:09:42.058Z,67.85
2022-10-15T09:13:09.605Z,66.81
2022-10-15T09:16:17.588Z,66.25
2022-10-15T09:19:35.123Z,65.75
2022-10-15T09:22:37.017Z,64.46
2022-10-15T09:26:01.119Z,64.04
2022-10-15T09:29:18.193Z,64.01
2022-10-15T09:32:44.053Z,63.95
2022-10-15T09:36:00.148Z,63.37
2022-10-15T09:39:32.077Z,63.34
2022-10-15T09:42:49.134Z,62.59
2022-10-15T09:45:50.963Z,62.42
2022-10-15T09:49:22.069Z,62.27
2022-10-15T09:53:11.127Z,63.02
2022-10-15T09:56:24.856Z,62.84
2022-10-15T09:59:33.101Z,62.93
2022-10-15T10:02:41.791Z,63.20
2022-10-15T10:05:57.112Z,63.47
2022-10-15T10:09:12.077Z,62.83
2022-10-15T10:12:32.135Z,62.35
2022-10-15T10:15:37.260Z,61.71
2022-10-15T10:19:10.614Z,61.12
2022-10-15T10:22:24.193Z,59.88
2022-10-15T10:25:45.148Z,58.31
2022-10-15T10:28:56.781Z,58.42
2022-10-15T10:32:19.270Z,58.58
2022-10-15T10:35:51.180Z,57.77
2022-10-15T10:39:30.095Z,56.63
2022-10-15T10:42:41.379Z,56.00
2022-10-15T10:46:07.107Z,55.96
2022-10-15T10:49:15.141Z,55.58
2022-10-15T10:52:39.140Z,55.62
2022-10-15T10:55:42.131Z,55.90
2022-10-15T10:59:06.448Z,55.67
2022-10-15T11:02:19.805Z,55.53
2022-10-15T11:05:34.166Z,55.36
2022-10-15T11:09:11.241Z,54.60
2022-10-15T11:12:39.006Z,54.90
2022-10-15T11:16:03.136Z,53.76
2022-10-15T11:19:54.699Z,52.54
2022-10-15T11:23:25.060Z,52.55
2022-10-15T11:27:10.592Z,52.10
2022-10-15T11:30:47.242Z,51.49
2022-10-15T11:34:24.447Z,52.48
2022-10-15T11:37:48.138Z,52.73
2022-10-15T11:41:23.761Z,51.64
2022-10-15T11:44:55.161Z,51.42
2022-10-15T11:48:13.944Z,51.75
2022-10-15T11:51:44.269Z,52.05
2022-10-15T11:55:20.267Z,51.53
2022-10-15T11:58:40.169Z,51.46
2022-10-15T12:01:54.219Z,51.19
2022-10-15T12:05:20.220Z,51.13
2022-10-15T12:08:26.738Z,50.73
2022-10-15T12:12:02.091Z,50.45
2022-10-15T12:15:20.612Z,50.35
2022-10-15T12:18:57.280Z,50.53
2022-10-15T12:22:09.594Z,50.55
2022-10-15T12:25:39.155Z,50.52
2022-10-15T12:28:48.877Z,50.47
2022-10-15T12:32:01.267Z,48.20
2022-10-15T12:35:31.181Z,48.34
2022-10-15T12:38:36.396Z,48.43
2022-10-15T12:41:54.166Z,48.75
2022-10-15T12:44:58.690Z,48.58
2022-10-15T12:48:42.186Z,48.95
2022-10-15T12:51:53.931Z,49.26
2022-10-15T12:55:25.069Z,49.33
2022-10-15T12:58:44.215Z,49.76
2022-10-15T13:01:52.826Z,49.56
2022-10-15T13:05:36.234Z,49.18
2022-10-15T13:09:02.301Z,49.26
2022-10-15T13:12:23.004Z,49.33
2022-10-15T13:15:37.227Z,49.07
2022-10-15T13:18:57.176Z,49.10
2022-10-15T13:22:09.246Z,49.57
2022-10-15T13:25:25.210Z,49.80
2022-10-15T13:28:48.251Z,50.03
2022-10-15T13:32:03.609Z,50.24
2022-10-15T13:35:24.200Z,50.67
2022-10-15T13:38:33.891Z,51.17
2022-10-15T13:41:49.886Z,50.72
2022-10-15T13:45:01.486Z,50.70
2022-10-15T13:48:18.208Z,50.31
2022-10-15T13:51:34.315Z,50.06
2022-10-15T13:54:42.279Z,50.22
2022-10-15T13:58:01.494Z,50.33
2022-10-15T14:01:16.313Z,50.38
2022-10-15T14:04:24.877Z,50.43
2022-10-15T14:07:33.244Z,50.24
2022-10-15T14:10:50.132Z,50.26
2022-10-15T14:14:00.287Z,50.08
2022-10-15T14:17:12.043Z,50.00
2022-10-15T14:20:27.989Z,49.86
2022-10-15T14:23:37.012Z,50.13
2022-10-15T14:26:45.271Z,50.07
2022-10-15T14:30:07.448Z,49.81
2022-10-15T14:33:38.279Z,50.21
2022-10-15T14:36:53.238Z,50.41
2022-10-15T14:40:20.270Z,50.78
2022-10-15T14:43:39.331Z,51.21
2022-10-15T14:46:59.273Z,52.52
2022-10-15T14:50:01.815Z,52.14
2022-10-15T14:53:25.467Z,52.34
2022-10-15T14:56:33.391Z,52.24
2022-10-15T14:59:48.301Z,52.37
2022-10-15T15:02:57.326Z,52.36
2022-10-15T15:06:06.342Z,52.54
2022-10-15T15:09:15.490Z,52.68
2022-10-15T15:12:31.639Z,52.72
2022-10-15T15:15:47.408Z,52.95
2022-10-15T15:19:02.543Z,52.93
2022-10-15T15:22:15.307Z,53.04
2022-10-15T15:25:35.352Z,53.41
2022-10-15T15:28:44.406Z,53.33
2022-10-15T15:31:54.383Z,53.51
2022-10-15T15:35:31.711Z,53.67
2022-10-15T15:41:48.457Z,53.97
2022-10-15T15:44:57.375Z,54.40
2022-10-15T15:48:08.919Z,54.53
2022-10-15T15:51:29.409Z,54.76
2022-10-15T15:54:38.092Z,55.04
2022-10-15T15:57:47.461Z,55.23
2022-10-15T16:00:56.762Z,55.41
2022-10-15T16:04:05.502Z,55.83
2022-10-15T16:07:15.273Z,55.67
2022-10-15T16:10:24.407Z,55.82
2022-10-15T16:13:34.743Z,55.96
2022-10-15T16:16:43.391Z,56.12
2022-10-15T16:20:00.495Z,57.47
2022-10-15T16:23:15.469Z,58.17
2022-10-15T16:26:18.123Z,58.13
2022-10-15T16:29:33.355Z,57.91
2022-10-15T16:32:42.015Z,58.55
2022-10-15T16:35:59.303Z,58.74
2022-10-15T16:39:01.095Z,58.99
2022-10-15T16:42:15.377Z,58.55
2022-10-15T16:45:17.346Z,58.85
2022-10-15T16:48:32.453Z,58.94
2022-10-15T16:51:36.418Z,59.08
2022-10-15T16:54:53.332Z,59.17
2022-10-15T16:58:01.330Z,59.30
2022-10-15T17:01:14.104Z,59.23
2022-10-15T17:04:24.745Z,58.82
2022-10-15T17:07:45.418Z,59.17
2022-10-15T17:11:00.339Z,59.00
2022-10-15T17:14:18.757Z,59.15
2022-10-15T17:17:27.326Z,59.23
2022-10-15T17:20:50.377Z,59.23
2022-10-15T17:24:00.395Z,59.10
2022-10-15T17:27:09.343Z,59.04
2022-10-15T17:30:18.436Z,59.26
2022-10-15T17:33:27.072Z,59.27
2022-10-15T17:36:37.365Z,59.41
2022-10-15T17:39:45.988Z,59.39
2022-10-15T17:42:54.407Z,59.52
2022-10-15T17:46:12.404Z,59.50
2022-10-15T17:49:21.363Z,59.62
2022-10-15T17:52:29.991Z,59.59
2022-10-15T17:55:38.523Z,59.76
2022-10-15T17:58:47.847Z,59.81
2022-10-15T18:02:02.629Z,60.19
2022-10-15T18:05:04.900Z,60.35
2022-10-15T18:08:23.494Z,60.40
2022-10-15T18:11:34.382Z,60.39
2022-10-15T18:14:49.425Z,60.48
2022-10-15T18:17:51.385Z,60.54
2022-10-15T18:21:06.396Z,61.09
2022-10-15T18:24:08.157Z,61.12
2022-10-15T18:27:23.661Z,61.25
2022-10-15T18:30:25.831Z,61.39
2022-10-15T18:33:42.399Z,61.53
2022-10-15T18:36:57.416Z,61.39
2022-10-15T18:39:59.108Z,61.69
2022-10-15T18:43:16.107Z,61.74
2022-10-15T18:46:26.355Z,61.74
2022-10-15T18:49:34.999Z,61.73
2022-10-15T18:52:43.714Z,61.92
2022-10-15T18:55:52.065Z,62.14
2022-10-15T18:59:06.427Z,62.23
2022-10-15T19:02:16.492Z,62.25
2022-10-15T19:05:31.417Z,62.47
2022-10-15T19:08:33.292Z,62.64
2022-10-15T19:11:57.677Z,62.64
2022-10-15T19:14:59.540Z,62.99
2022-10-15T19:18:14.409Z,63.12
2022-10-15T19:21:22.422Z,63.06
2022-10-15T19:24:37.436Z,63.06
2022-10-15T19:27:45.399Z,63.26
2022-10-15T19:30:57.766Z,63.39
2022-10-15T19:34:06.479Z,63.45
2022-10-15T19:37:21.430Z,63.58
2022-10-15T19:40:23.254Z,63.74
2022-10-15T19:43:38.459Z,63.95
2022-10-15T19:46:47.502Z,64.05
2022-10-15T19:49:55.990Z,63.90
2022-10-15T19:53:04.447Z,64.08
2022-10-15T19:56:13.341Z,63.88
2022-10-15T19:59:21.442Z,63.99
2022-10-15T20:02:36.563Z,64.09
2022-10-15T20:05:45.799Z,64.24
2022-10-15T20:09:00.450Z,64.43
2022-10-15T20:12:02.405Z,64.44
2022-10-15T20:15:18.465Z,64.70
2022-10-15T20:18:22.454Z,64.74
2022-10-15T20:21:37.507Z,64.84
2022-10-15T20:24:46.079Z,64.66
2022-10-15T20:27:54.442Z,64.68
2022-10-15T20:31:07.231Z,64.47
2022-10-15T20:34:15.508Z,64.41
2022-10-15T20:37:30.475Z,64.38
2022-10-15T20:40:32.880Z,64.48
2022-10-15T20:43:48.455Z,65.02
2022-10-15T20:47:08.484Z,64.96
2022-10-15T20:50:22.454Z,64.49
2022-10-15T20:53:30.997Z,64.45
2022-10-15T20:56:46.467Z,64.40
2022-10-15T20:59:54.483Z,64.50
2022-10-15T21:03:09.459Z,64.45
2022-10-15T21:06:17.593Z,64.90
2022-10-15T21:09:32.488Z,65.61
2022-10-15T21:12:34.422Z,65.11
2022-10-15T21:15:49.507Z,64.91
2022-10-15T21:18:58.543Z,65.02
2022-10-15T21:22:07.245Z,64.86
2022-10-15T21:25:15.535Z,64.92
2022-10-15T21:28:24.093Z,64.83
2022-10-15T21:31:34.011Z,64.85
2022-10-15T21:34:42.133Z,65.06
2022-10-15T21:37:50.558Z,65.29
2022-10-15T21:40:59.088Z,65.94
2022-10-15T21:44:08.478Z,65.99
2022-10-15T21:47:23.494Z,66.24
2022-10-15T21:50:25.220Z,66.56
2022-10-15T21:53:39.479Z,65.96
2022-10-15T21:56:48.098Z,65.82
2022-10-15T22:00:02.532Z,65.98
2022-10-15T22:03:11.181Z,66.06
2022-10-15T22:06:27.528Z,65.69
2022-10-15T22:09:35.578Z,66.42
2022-10-15T22:12:58.483Z,65.97
2022-10-15T22:16:00.476Z,65.83
2022-10-15T22:19:18.499Z,65.91
2022-10-15T22:22:20.305Z,65.89
2022-10-15T22:25:36.528Z,65.99
2022-10-15T22:28:52.573Z,66.27
2022-10-15T22:32:01.626Z,66.64
2022-10-15T22:35:10.194Z,66.79
2022-10-15T22:38:18.538Z,66.65
2022-10-15T22:41:36.706Z,66.71
2022-10-15T22:44:38.477Z,66.70
2022-10-15T22:47:53.546Z,66.59
2022-10-15T22:50:58.023Z,66.68
2022-10-15T22:54:12.582Z,66.64
2022-10-15T22:57:14.390Z,66.97
2022-10-15T23:00:29.554Z,66.98
2022-10-15T23:03:37.542Z,67.14
2022-10-15T23:06:46.146Z,67.40
2022-10-15T23:09:55.615Z,67.34
2022-10-15T23:13:17.600Z,66.95
2022-10-15T23:16:36.548Z,66.97
2022-10-15T23:19:44.688Z,67.21
2022-10-15T23:22:53.259Z,67.52
2022-10-15T23:26:01.564Z,67.07
2022-10-15T23:29:22.543Z,67.10
2022-10-15T23:32:31.559Z,67.22
2022-10-15T23:35:46.557Z,66.55
2022-10-15T23:38:58.067Z,66.52
2022-10-15T23:42:06.688Z,66.44
2022-10-15T23:45:21.651Z,66.47
2022-10-15T23:48:23.644Z,66.52
2022-10-15T23:51:39.568Z,66.66
2022-10-15T23:54:47.568Z,66.35
2022-10-15T23:58:02.547Z,66.00
